Time;durP1;ratioP1;P1;durP2;ratioP2;P2;SDS_P1;SDS_P2;PMS_P1;PMS_P2;Temp;Humidity;BMP_temperature;BMP_pressure;BME280_temperature;BME280_humidity;BME280_pressure;Samples;Min_cycle;Max_cycle;Signal;HPM_P1;HPM_P2
2023/01/03 00:01:38;;;;;;;;;;;;;;;7.54;100.00;100732.06;5054834;28;19959;-89
2023/01/03 00:04:03;;;;;;;;;;;;;;;7.63;100.00;100731.91;5054776;28;19968;-84
2023/01/03 00:06:31;;;;;;;;;;;;;;;7.67;100.00;100732.72;5054914;28;19924;-83
2023/01/03 00:08:58;;;;;;;;;;;;;;;7.67;100.00;100732.72;5053194;28;20367;-83
2023/01/03 00:14:09;;;;;;;;;;;;;;;7.75;100.00;100738.75;5054724;28;19927;-84
2023/01/03 00:16:34;;;;;;;;;;;;;;;7.81;100.00;100745.72;5054619;28;19920;-83
2023/01/03 00:19:03;;;;;;;;;;;;;;;7.79;100.00;100744.88;5054535;28;19940;-83
2023/01/03 00:21:33;;;;;;;;;;;;;;;7.81;100.00;100745.72;5054653;28;19943;-88
2023/01/03 05:27:18;;;;;;;;;;;;;;;9.16;100.00;100808.44;5050780;28;19921;-89
2023/01/03 05:29:47;;;;;;;;;;;;;;;9.16;100.00;100808.44;5073807;28;20247;-87
2023/01/03 05:32:12;;;;;;;;;;;;;;;9.19;100.00;100811.00;5056031;28;19923;-85
2023/01/03 05:34:37;;;;;;;;;;;;;;;8.31;100.00;100806.47;5073952;28;19916;-89
2023/01/03 05:37:03;;;;;;;;;;;;;;;7.88;100.00;100809.81;5072554;28;19916;-88
2023/01/03 05:39:28;;;;;;;;;;;;;;;7.68;100.00;100813.63;5055878;28;19917;-84
2023/01/03 05:41:59;;;;;;;;;;;;;;;7.53;100.00;100829.66;5073844;28;19923;-85
2023/01/03 05:44:25;;;;;;;;;;;;;;;7.47;100.00;100830.63;5073558;28;20394;-84
2023/01/03 05:46:50;;;;;;;;;;;;;;;7.37;100.00;100824.63;5055718;28;19971;-85
2023/01/03 05:49:16;;;;;;;;;;;;;;;7.30;100.00;100828.22;5073637;28;19956;-83
2023/01/03 05:51:41;;;;;;;;;;;;;;;7.25;100.00;100835.31;5072289;28;19916;-85
2023/01/03 05:54:07;;;;;;;;;;;;;;;7.26;100.00;100844.97;5055927;28;19916;-86
2023/01/03 05:56:32;;;;;;;;;;;;;;;7.14;100.00;100848.63;5073537;28;19924;-85
2023/01/03 05:58:58;;;;;;;;;;;;;;;7.14;100.00;100850.38;5073431;28;19916;-87
2023/01/03 06:01:27;;;;;;;;;;;;;;;7.07;100.00;100847.81;5055481;28;20014;-85
2023/01/03 06:03:52;;;;;;;;;;;;;;;7.03;100.00;100846.09;5073495;28;19931;-87
2023/01/03 06:06:18;;;;;;;;;;;;;;;6.99;100.00;100857.59;5072043;28;19916;-86
2023/01/03 06:08:43;;;;;;;;;;;;;;;6.93;100.00;100855.00;5055388;28;19923;-87
2023/01/03 06:11:10;;;;;;;;;;;;;;;6.94;100.00;100853.22;5073433;28;20385;-85
2023/01/03 06:13:35;;;;;;;;;;;;;;;6.93;100.00;100851.50;5073093;28;19917;-86
2023/01/03 06:18:48;;;;;;;;;;;;;;;6.84;100.00;100850.69;5073529;28;19988;-86
2023/01/03 06:21:13;;;;;;;;;;;;;;;6.82;100.00;100855.13;5071996;28;19975;-86
2023/01/03 06:23:39;;;;;;;;;;;;;;;6.83;100.00;100854.22;5072932;28;20359;-86
2023/01/03 06:26:04;;;;;;;;;;;;;;;6.76;100.00;100854.31;5055160;28;19923;-86
2023/01/03 06:28:29;;;;;;;;;;;;;;;6.75;100.00;100866.63;5073177;28;20405;-85
2023/01/03 06:30:55;;;;;;;;;;;;;;;6.76;100.00;100862.22;5073179;28;20260;-82
2023/01/03 06:33:20;;;;;;;;;;;;;;;6.68;100.00;100873.69;5073184;28;20413;-83
2023/01/03 06:35:45;;;;;;;;;;;;;;;6.64;100.00;100874.63;5071540;28;19975;-82
2023/01/03 06:38:10;;;;;;;;;;;;;;;6.65;100.00;100863.19;5072933;28;19916;-82
2023/01/03 06:40:36;;;;;;;;;;;;;;;6.62;100.00;100868.50;5072688;28;19920;-83
2023/01/03 06:43:01;;;;;;;;;;;;;;;6.59;100.00;100860.63;5072814;28;19959;-83
2023/01/03 09:08:47;;;;;;;;;;;;;;;5.52;100.00;100973.53;5748319;22;19939;-86
2023/01/03 09:11:12;;;;;;;;;;;;;;;5.56;100.00;100969.13;5056518;28;19920;-84
2023/01/03 09:13:38;;;;;;;;;;;;;;;5.55;100.00;100976.16;5074267;28;19928;-85
2023/01/03 09:16:04;;;;;;;;;;;;;;;5.52;100.00;100972.63;5074193;28;19923;-85
2023/01/03 09:18:29;;;;;;;;;;;;;;;5.54;100.00;100976.16;5074294;28;19967;-85
2023/01/03 09:20:54;;;;;;;;;;;;;;;5.51;100.00;100977.03;5056103;28;19978;-85
2023/01/03 09:23:20;;;;;;;;;;;;;;;5.48;100.00;100979.66;5072841;28;19920;-89
2023/01/03 09:25:45;;;;;;;;;;;;;;;5.50;100.00;100982.28;5073875;28;19966;-85
2023/01/03 09:28:11;;;;;;;;;;;;;;;5.44;100.00;100978.81;5074089;28;19924;-84
2023/01/03 09:30:36;;;;;;;;;;;;;;;5.49;100.00;100989.31;5074137;28;19920;-86
2023/01/03 09:33:04;;;;;;;;;;;;;;;5.44;100.00;100991.03;5056095;28;19917;-85
2023/01/03 09:35:30;;;;;;;;;;;;;;;5.43;100.00;100986.69;5073850;28;20002;-85
2023/01/03 09:37:55;;;;;;;;;;;;;;;5.41;100.00;100991.09;5072455;28;20363;-86
2023/01/03 09:40:20;;;;;;;;;;;;;;;5.43;100.00;100981.44;5073867;28;19921;-84
2023/01/03 09:45:31;;;;;;;;;;;;;;;5.38;100.00;100984.06;5073798;28;19959;-85
2023/01/03 09:47:57;;;;;;;;;;;;;;;5.47;100.00;100980.53;5073412;28;19963;-84
2023/01/03 09:50:23;;;;;;;;;;;;;;;5.39;100.00;100982.31;5073798;28;20405;-84
2023/01/03 10:04:06;;;;;;;;;;;;;;;5.30;100.00;100984.94;5073545;28;20333;-85
2023/01/03 10:06:32;;;;;;;;;;;;;;;5.34;100.00;100974.44;5073428;28;19920;-84
2023/01/03 10:08:57;;;;;;;;;;;;;;;5.35;100.00;100985.84;5071808;28;19917;-85
2023/01/03 10:11:31;;;;;;;;;;;;;;;5.31;100.00;100992.84;5073418;28;20359;-85
2023/01/03 10:14:00;;;;;;;;;;;;;;;5.33;100.00;100987.56;5073267;28;19924;-84
2023/01/03 10:16:28;;;;;;;;;;;;;;;5.32;100.00;100978.81;5073390;28;20001;-85
2023/01/03 10:19:09;;;;;;;;;;;;;;;5.31;100.00;100979.69;5073136;28;20341;-85
2023/01/03 10:21:44;;;;;;;;;;;;;;;5.32;100.00;100976.19;5073216;28;19923;-85
2023/01/03 10:24:21;;;;;;;;;;;;;;;5.32;100.00;100975.34;5071930;28;19916;-84
2023/01/03 10:27:13;;;;;;;;;;;;;;;5.30;100.00;100982.31;5073089;28;19927;-84
2023/01/03 10:29:38;;;;;;;;;;;;;;;5.32;100.00;100983.22;5069933;28;19974;-84
2023/01/03 10:32:13;;;;;;;;;;;;;;;5.34;100.00;100984.06;5073028;28;19952;-88
2023/01/03 10:34:38;;;;;;;;;;;;;;;5.30;100.00;100977.97;5073098;28;19943;-85
2023/01/03 10:37:14;;;;;;;;;;;;;;;5.28;100.00;100977.06;5072975;28;20359;-84
2023/01/03 10:39:39;;;;;;;;;;;;;;;5.32;100.00;100972.69;5072219;28;20287;-84
2023/01/03 10:42:05;;;;;;;;;;;;;;;5.29;100.00;100970.94;5073305;28;19920;-84
2023/01/03 10:44:31;;;;;;;;;;;;;;;5.24;100.00;100973.56;5073259;28;20334;-85
2023/01/03 10:46:58;;;;;;;;;;;;;;;5.22;100.00;100974.47;5054944;28;19923;-84
2023/01/03 10:49:25;;;;;;;;;;;;;;;5.26;100.00;100970.94;5073093;28;19916;-84
2023/01/03 10:51:56;;;;;;;;;;;;;;;5.27;100.00;100967.47;5073025;28;20801;-85
2023/01/03 10:54:24;;;;;;;;;;;;;;;5.25;100.00;100967.47;5053700;28;20333;-84
2023/01/03 10:56:50;;;;;;;;;;;;;;;5.26;100.00;100965.69;5054924;28;20363;-85
2023/01/03 10:59:15;;;;;;;;;;;;;;;5.27;100.00;100975.34;5055028;28;19917;-83
2023/01/03 11:01:59;;;;;;;;;;;;;;;5.24;100.00;100965.69;5055207;28;19921;-91
2023/01/03 11:04:25;;;;;;;;;;;;;;;5.23;100.00;100966.59;5073007;28;19963;-87
2023/01/03 11:06:59;;;;;;;;;;;;;;;5.22;100.00;100964.84;5076266;28;19982;-86
2023/01/03 11:09:27;;;;;;;;;;;;;;;5.20;100.00;100961.34;5057269;28;19920;-86
2023/01/03 11:12:01;;;;;;;;;;;;;;;5.20;100.00;100965.69;5076548;28;19924;-86
2023/01/03 11:14:27;;;;;;;;;;;;;;;5.16;100.00;100966.59;5076764;28;19923;-88
2023/01/03 11:17:00;;;;;;;;;;;;;;;5.15;100.00;100960.44;5076539;28;19920;-86
2023/01/03 11:19:27;;;;;;;;;;;;;;;5.20;100.00;100966.59;5058685;28;20286;-86
2023/01/03 11:21:55;;;;;;;;;;;;;;;5.14;100.00;100966.59;5076272;28;20402;-85
2023/01/03 11:24:43;;;;;;;;;;;;;;;5.18;100.00;100963.06;5075183;28;19999;-89
2023/01/03 11:27:14;;;;;;;;;;;;;;;5.20;100.00;100963.97;5075948;28;19971;-86
2023/01/03 11:29:54;;;;;;;;;;;;;;;5.18;100.00;100962.22;5076332;28;19962;-85
2023/01/03 11:32:27;;;;;;;;;;;;;;;5.18;100.00;100955.19;5076196;28;19920;-86
2023/01/03 11:35:11;;;;;;;;;;;;;;;5.19;100.00;100953.47;5076325;28;20118;-88
2023/01/03 11:37:36;;;;;;;;;;;;;;;5.15;100.00;100956.97;5057012;28;19913;-85
2023/01/03 11:40:11;;;;;;;;;;;;;;;5.11;100.00;100956.09;5058140;28;19939;-87
2023/01/03 11:42:44;;;;;;;;;;;;;;;5.11;100.00;100953.47;5076039;28;19913;-84
2023/01/03 11:45:28;;;;;;;;;;;;;;;5.12;100.00;100957.81;5058185;28;19943;-87
2023/01/03 11:48:19;;;;;;;;;;;;;;;5.09;100.00;100952.63;5057952;28;19951;-85
2023/01/03 11:50:50;;;;;;;;;;;;;;;5.09;100.00;100953.47;5058101;28;19923;-89
2023/01/03 11:53:15;;;;;;;;;;;;;;;5.11;100.00;100942.97;5074439;28;19916;-87
2023/01/03 11:55:53;;;;;;;;;;;;;;;5.12;100.00;100941.19;5075980;28;19916;-89
2023/01/03 11:58:37;;;;;;;;;;;;;;;5.14;100.00;100947.31;5058037;28;19916;-86
2023/01/03 12:01:20;;;;;;;;;;;;;;;5.09;100.00;100939.47;5075593;28;20279;-89
2023/01/03 12:04:06;;;;;;;;;;;;;;;5.10;100.00;100941.19;5057667;28;20022;-89
2023/01/03 12:06:31;;;;;;;;;;;;;;;5.08;100.00;100935.09;5053450;28;19924;-88
2023/01/03 12:08:56;;;;;;;;;;;;;;;5.13;100.00;100937.72;5074114;28;19939;-88
2023/01/03 12:11:40;;;;;;;;;;;;;;;5.13;100.00;100938.56;5075796;28;20012;-87
2023/01/03 12:14:23;;;;;;;;;;;;;;;5.66;100.00;100943.66;5075360;28;19923;-86
2023/01/03 12:16:56;;;;;;;;;;;;;;;6.10;100.00;100938.22;5075335;28;20013;-86
2023/01/03 12:19:21;;;;;;;;;;;;;;;6.35;100.00;100935.41;5075886;28;19943;-85
2023/01/03 12:21:55;;;;;;;;;;;;;;;6.60;100.00;100930.81;5075620;28;20367;-86
2023/01/03 12:24:24;;;;;;;;;;;;;;;6.72;100.00;100936.00;5056255;28;19924;-87
2023/01/03 12:26:51;;;;;;;;;;;;;;;6.84;100.00;100939.41;5075515;28;19923;-86
2023/01/03 12:29:19;;;;;;;;;;;;;;;6.94;100.00;100935.81;5075288;28;19916;-86
2023/01/03 12:32:03;;;;;;;;;;;;;;;7.02;100.00;100936.59;5057403;28;19921;-86
2023/01/03 12:34:33;;;;;;;;;;;;;;;7.14;100.00;100926.81;5057302;28;19917;-86
2023/01/03 12:36:58;;;;;;;;;;;;;;;7.17;100.00;100922.38;5074991;28;19916;-86
2023/01/03 12:39:35;;;;;;;;;;;;;;;7.28;100.00;100925.78;5074031;28;20336;-86
2023/01/03 12:42:16;;;;;;;;;;;;;;;7.35;100.00;100931.84;5075232;28;19927;-86
2023/01/03 12:44:43;;;;;;;;;;;;;;;7.36;100.00;100922.19;5075335;28;20395;-86
2023/01/03 12:47:18;;;;;;;;;;;;;;;7.37;100.00;100922.19;5074877;28;19916;-85
2023/01/03 12:49:50;;;;;;;;;;;;;;;7.45;100.00;100916.78;5074875;28;19923;-86
2023/01/03 12:52:21;;;;;;;;;;;;;;;7.54;100.00;100916.69;5074111;28;20450;-86
2023/01/03 12:55:07;;;;;;;;;;;;;;;7.57;100.00;100916.66;5074069;28;19916;-87
2023/01/03 12:57:36;;;;;;;;;;;;;;;7.61;100.00;100913.09;5056309;28;20362;-86
2023/01/03 13:00:16;;;;;;;;;;;;;;;7.63;100.00;100907.78;5074576;28;19966;-86
2023/01/03 13:02:53;;;;;;;;;;;;;;;7.69;100.00;100897.16;5074632;28;19920;-86
2023/01/03 13:05:24;;;;;;;;;;;;;;;7.75;100.00;100894.41;5074558;28;19916;-86
2023/01/03 13:08:03;;;;;;;;;;;;;;;7.73;100.00;100898.84;5073168;28;19917;-86
2023/01/03 13:10:31;;;;;;;;;;;;;;;7.78;100.00;100902.28;5074374;28;20007;-87
2023/01/03 13:12:58;;;;;;;;;;;;;;;7.87;100.00;100897.81;5074349;28;20011;-84
2023/01/03 13:15:24;;;;;;;;;;;;;;;7.87;100.00;100887.25;5074362;28;20010;-86
2023/01/03 13:17:52;;;;;;;;;;;;;;;7.87;100.00;100896.03;5074287;28;20008;-90
2023/01/03 13:20:25;;;;;;;;;;;;;;;7.90;100.00;100896.00;5074160;28;19917;-87
2023/01/03 13:22:53;;;;;;;;;;;;;;;7.93;100.00;100893.31;5072702;28;20438;-86
2023/01/03 13:25:25;;;;;;;;;;;;;;;7.92;100.00;100886.28;5074020;28;19920;-90
2023/01/03 13:27:50;;;;;;;;;;;;;;;7.98;100.00;100882.69;5055461;28;19917;-84
2023/01/03 13:30:22;;;;;;;;;;;;;;;7.99;100.00;100881.78;5074073;28;20417;-93
2023/01/03 13:33:03;;;;;;;;;;;;;;;8.02;100.00;100875.59;5056562;28;19946;-87
2023/01/03 13:35:31;;;;;;;;;;;;;;;8.04;100.00;100868.50;5073813;28;19973;-86
2023/01/03 13:37:58;;;;;;;;;;;;;;;8.06;100.00;100880.81;5072574;28;20371;-87
2023/01/03 13:40:24;;;;;;;;;;;;;;;8.08;100.00;100872.88;5073741;28;19923;-85
2023/01/03 13:43:07;;;;;;;;;;;;;;;8.09;100.00;100883.41;5055988;28;19916;-89
2023/01/03 13:45:33;;;;;;;;;;;;;;;8.12;100.00;100872.78;5073717;28;19924;-87
2023/01/03 13:48:09;;;;;;;;;;;;;;;8.11;100.00;100875.47;5055605;28;19916;-87
2023/01/03 13:50:35;;;;;;;;;;;;;;;8.16;100.00;100879.75;5055831;28;19917;-90
2023/01/03 13:53:03;;;;;;;;;;;;;;;8.18;100.00;100875.34;5054723;28;19924;-85
2023/01/03 13:55:31;;;;;;;;;;;;;;;8.18;100.00;100863.88;5055790;28;19917;-88
2023/01/03 13:57:57;;;;;;;;;;;;;;;8.19;100.00;100858.59;5073639;28;19917;-86
2023/01/03 14:00:23;;;;;;;;;;;;;;;8.22;100.00;100855.03;5055472;28;19920;-88
2023/01/03 14:03:08;;;;;;;;;;;;;;;8.26;100.00;100856.72;5055766;28;20019;-87
2023/01/03 14:05:46;;;;;;;;;;;;;;;8.27;100.00;100855.81;5055501;28;19920;-85
2023/01/03 14:08:40;;;;;;;;;;;;;;;8.31;100.00;100851.34;5054039;28;19927;-86
2023/01/03 14:11:05;;;;;;;;;;;;;;;8.32;100.00;100855.75;5001244;28;20353;-85
2023/01/03 14:13:39;;;;;;;;;;;;;;;8.29;100.00;100853.16;5073292;28;19921;-88
2023/01/03 14:16:05;;;;;;;;;;;;;;;8.33;100.00;100857.50;5055432;28;19916;-87
2023/01/03 14:18:31;;;;;;;;;;;;;;;8.31;100.00;100860.19;5055361;28;20363;-84
2023/01/03 14:20:56;;;;;;;;;;;;;;;8.35;100.00;100861.00;5055351;28;19916;-87
2023/01/03 14:23:23;;;;;;;;;;;;;;;8.38;100.00;100868.88;5066989;28;19956;-89
2023/01/03 14:25:48;;;;;;;;;;;;;;;8.42;100.00;100873.19;5055634;28;19917;-90
2023/01/03 14:28:22;;;;;;;;;;;;;;;8.39;100.00;100870.59;5055146;28;19966;-88
2023/01/03 14:30:53;;;;;;;;;;;;;;;8.38;100.00;100874.16;5055742;28;20325;-87
2023/01/03 14:33:20;;;;;;;;;;;;;;;8.41;100.00;100874.09;5073694;28;19939;-88
2023/01/03 14:35:46;;;;;;;;;;;;;;;8.44;100.00;100879.38;5073256;28;19971;-85
2023/01/03 14:38:21;;;;;;;;;;;;;;;8.43;100.00;100872.31;5071562;28;20356;-86
2023/01/03 14:40:47;;;;;;;;;;;;;;;8.46;100.00;100872.28;5076833;28;19916;-88
2023/01/03 14:43:12;;;;;;;;;;;;;;;8.47;100.00;100875.78;5077198;28;20413;-87
2023/01/03 14:45:37;;;;;;;;;;;;;;;8.49;100.00;100876.66;5059646;28;19967;-87
2023/01/03 14:48:04;;;;;;;;;;;;;;;8.46;100.00;100871.41;5059046;28;19917;-85
2023/01/03 14:50:29;;;;;;;;;;;;;;;8.47;100.00;100874.03;5059090;28;20433;-87
2023/01/03 14:52:56;;;;;;;;;;;;;;;8.51;100.00;100875.72;5075741;28;20024;-86
2023/01/03 14:55:26;;;;;;;;;;;;;;;8.51;100.00;100880.13;5077042;28;19920;-84
2023/01/03 14:57:51;;;;;;;;;;;;;;;8.53;100.00;100880.97;5058997;28;19920;-86
2023/01/03 15:00:18;;;;;;;;;;;;;;;8.57;100.00;100880.03;5058789;28;19924;-85
2023/01/03 15:02:44;;;;;;;;;;;;;;;8.56;100.00;100885.34;5059053;28;19916;-85
2023/01/03 15:05:30;;;;;;;;;;;;;;;8.56;100.00;100885.34;5076716;28;19997;-84
2023/01/03 15:08:14;;;;;;;;;;;;;;;8.56;100.00;100880.06;5074710;28;19931;-85
2023/01/03 15:10:51;;;;;;;;;;;;;;;8.58;100.00;100883.53;5055452;28;19921;-86
2023/01/03 15:13:29;;;;;;;;;;;;;;;8.57;100.00;100885.31;5055339;28;19952;-83
2023/01/03 15:15:55;;;;;;;;;;;;;;;8.60;100.00;100887.00;5055357;28;19917;-88
2023/01/03 15:18:23;;;;;;;;;;;;;;;8.65;100.00;100886.03;5055320;28;19978;-85
2023/01/03 15:20:49;;;;;;;;;;;;;;;8.62;100.00;100887.88;5055367;28;20295;-86
2023/01/03 15:23:33;;;;;;;;;;;;;;;8.65;100.00;100895.75;5055105;28;19938;-85
2023/01/03 15:25:59;;;;;;;;;;;;;;;8.68;100.00;100893.03;5054970;28;19998;-86
2023/01/03 15:28:26;;;;;;;;;;;;;;;8.67;100.00;100902.72;5056271;28;19917;-86
2023/01/03 15:30:52;;;;;;;;;;;;;;;8.66;100.00;100900.13;5053192;28;19936;-84
2023/01/03 15:33:32;;;;;;;;;;;;;;;8.71;100.00;100900.91;5040529;28;20016;-86
2023/01/03 15:36:02;;;;;;;;;;;;;;;8.70;100.00;100902.69;5045542;28;19928;-86
2023/01/03 15:38:34;;;;;;;;;;;;;;;8.68;100.00;100899.22;5043108;28;19921;-86
2023/01/03 15:41:03;;;;;;;;;;;;;;;8.72;100.00;100902.66;5050523;28;19967;-87
2023/01/03 15:43:32;;;;;;;;;;;;;;;8.79;100.00;100906.06;5042420;28;20306;-86
2023/01/03 15:46:01;;;;;;;;;;;;;;;8.77;100.00;100907.88;5039329;28;19970;-86
2023/01/03 15:48:36;;;;;;;;;;;;;;;;;;;;;
2023/01/03 15:51:03;;;;;;;;;;;;;;;8.75;100.00;100902.59;5037046;28;19927;-86
2023/01/03 15:53:32;;;;;;;;;;;;;;;8.80;100.00;100902.53;5044766;28;19948;-85
2023/01/03 15:56:23;;;;;;;;;;;;;;;8.80;100.00;100903.38;5042449;28;19925;-83
2023/01/03 15:58:50;;;;;;;;;;;;;;;8.82;100.00;100906.00;5043767;28;19917;-84
2023/01/03 16:01:17;;;;;;;;;;;;;;;8.85;100.00;100900.66;5042727;28;19948;-84
2023/01/03 16:03:42;;;;;;;;;;;;;;;8.82;100.00;100896.31;5052790;28;19925;-84
2023/01/03 16:06:07;;;;;;;;;;;;;;;8.83;100.00;100897.19;5040603;28;19929;-85
2023/01/03 16:08:34;;;;;;;;;;;;;;;8.81;100.00;100899.00;5032547;28;19975;-85
2023/01/03 16:11:01;;;;;;;;;;;;;;;8.82;100.00;100906.91;5047167;28;20289;-86
2023/01/03 16:13:27;;;;;;;;;;;;;;;8.85;100.00;100900.66;5036578;28;19921;-84
2023/01/03 16:15:54;;;;;;;;;;;;;;;8.86;100.00;100905.94;5038833;28;20016;-85
2023/01/03 16:18:25;;;;;;;;;;;;;;;8.89;100.00;100891.78;5049943;28;20287;-85
2023/01/03 16:20:51;;;;;;;;;;;;;;;8.86;100.00;100894.50;5042595;28;19928;-86
2023/01/03 16:23:24;;;;;;;;;;;;;;;8.87;100.00;100889.19;5040485;28;19968;-87
2023/01/03 16:25:49;;;;;;;;;;;;;;;8.88;100.00;100897.97;5038970;28;19975;-86
2023/01/03 16:28:15;;;;;;;;;;;;;;;8.88;100.00;100906.75;5040121;28;19921;-84
2023/01/03 16:30:40;;;;;;;;;;;;;;;8.93;100.00;100896.09;5047199;28;19925;-90
2023/01/03 16:33:08;;;;;;;;;;;;;;;8.95;100.00;100894.34;5030477;28;19917;-85
2023/01/03 16:35:33;;;;;;;;;;;;;;;8.99;100.00;100900.41;5038355;28;20398;-87
2023/01/03 16:37:58;;;;;;;;;;;;;;;8.97;100.00;100891.66;5050991;28;19924;-88
2023/01/03 16:40:23;;;;;;;;;;;;;;;8.92;100.00;100883.81;5045029;28;19921;-86
2023/01/03 16:42:48;;;;;;;;;;;;;;;8.95;100.00;100883.75;5040634;28;19975;-90
2023/01/03 16:45:15;;;;;;;;;;;;;;;8.95;100.00;100885.50;5037510;28;19921;-86
2023/01/03 16:47:41;;;;;;;;;;;;;;;9.00;100.00;100888.94;5036588;28;19924;-90
2023/01/03 16:50:12;;;;;;;;;;;;;;;9.02;100.00;100890.66;5038486;28;19974;-87
2023/01/03 16:52:39;;;;;;;;;;;;;;;9.00;100.00;100888.94;5032334;28;19920;-87
2023/01/03 16:55:21;;;;;;;;;;;;;;;9.00;100.00;100900.41;5034981;28;20009;-92
2023/01/03 16:57:46;;;;;;;;;;;;;;;9.04;100.00;100903.84;5034489;28;19929;-89
2023/01/03 17:00:22;;;;;;;;;;;;;;;9.08;100.00;100902.91;5038493;28;20382;-84
2023/01/03 17:02:47;;;;;;;;;;;;;;;9.09;100.00;100901.97;5046089;28;19947;-89
2023/01/03 17:05:13;;;;;;;;;;;;;;;9.08;100.00;100892.31;5035239;28;19921;-85
2023/01/03 17:07:39;;;;;;;;;;;;;;;9.05;100.00;100892.38;5033337;28;20008;-85
2023/01/03 17:10:04;;;;;;;;;;;;;;;9.04;100.00;100890.63;5033159;28;20354;-84
2023/01/03 17:12:30;;;;;;;;;;;;;;;9.05;100.00;100897.66;5034320;28;19947;-85
2023/01/03 17:14:55;;;;;;;;;;;;;;;9.09;100.00;100894.94;5033200;28;19955;-87
2023/01/03 17:17:21;;;;;;;;;;;;;;;9.06;100.00;100902.94;5033215;28;19921;-88
2023/01/03 17:19:47;;;;;;;;;;;;;;;9.14;100.00;100891.31;5033061;28;19921;-87
2023/01/03 17:22:14;;;;;;;;;;;;;;;9.12;100.00;100895.78;5036026;28;19940;-86
2023/01/03 17:24:39;;;;;;;;;;;;;;;9.32;100.00;100901.53;5031638;28;19922;-85
2023/01/03 17:27:05;;;;;;;;;;;;;;;8.19;100.00;100906.13;5032977;28;19924;-84
2023/01/03 17:29:30;;;;;;;;;;;;;;;7.73;100.00;100906.78;5034182;28;19928;-84
2023/01/03 17:31:56;;;;;;;;;;;;;;;7.53;100.00;100908.78;5034155;28;19917;-84
2023/01/03 17:34:21;;;;;;;;;;;;;;;7.38;100.00;100908.09;5037853;28;19918;-82
2023/01/03 17:36:46;;;;;;;;;;;;;;;7.28;100.00;100920.50;5033887;28;19928;-84
2023/01/03 17:39:12;;;;;;;;;;;;;;;7.21;100.00;100916.19;5031784;28;19924;-83
2023/01/03 17:44:21;;;;;;;;;;;;;;;7.06;100.00;100930.41;5034574;28;19928;-84
2023/01/03 17:49:32;;;;;;;;;;;;;;;6.97;100.00;100935.75;5034186;28;19971;-86
2023/01/03 17:52:00;;;;;;;;;;;;;;;6.91;100.00;100935.84;5028757;28;20284;-87
2023/01/03 17:54:30;;;;;;;;;;;;;;;6.87;100.00;100929.69;5031270;28;19971;-84
2023/01/03 17:57:03;;;;;;;;;;;;;;;6.84;100.00;100937.63;5034789;28;19917;-88
2023/01/03 17:59:29;;;;;;;;;;;;;;;6.81;100.00;100927.16;5045037;28;19927;-84
2023/01/03 18:01:54;;;;;;;;;;;;;;;7.60;100.00;100928.94;5033147;28;19913;-84
2023/01/03 18:04:27;;;;;;;;;;;;;;;8.15;100.00;100920.28;5033590;28;19924;-84
2023/01/03 18:07:01;;;;;;;;;;;;;;;7.40;100.00;100935.31;5032130;28;19971;-85
2023/01/03 18:09:27;;;;;;;;;;;;;;;7.10;100.00;100936.53;5035835;28;20298;-85
2023/01/03 18:11:53;;;;;;;;;;;;;;;6.97;100.00;100935.75;5035373;28;19952;-84
2023/01/03 18:14:19;;;;;;;;;;;;;;;6.88;100.00;100931.47;5030647;28;19966;-86
2023/01/03 18:16:44;;;;;;;;;;;;;;;6.81;100.00;100934.16;5035349;28;20011;-83
2023/01/03 18:19:12;;;;;;;;;;;;;;;6.78;100.00;100931.56;5035271;28;19917;-84
2023/01/03 18:21:38;;;;;;;;;;;;;;;6.72;100.00;100929.88;5035190;28;19917;-84
2023/01/03 18:24:05;;;;;;;;;;;;;;;6.68;100.00;100942.16;5029713;28;20008;-87
2023/01/03 18:26:41;;;;;;;;;;;;;;;6.62;100.00;100931.72;5039134;28;19946;-84
2023/01/03 18:29:06;;;;;;;;;;;;;;;6.63;100.00;100935.19;5052145;28;19928;-84
2023/01/03 18:31:32;;;;;;;;;;;;;;;6.58;100.00;100945.78;5059965;28;19913;-83
2023/01/03 18:34:02;;;;;;;;;;;;;;;6.54;100.00;100946.66;5054955;28;19970;-83
2023/01/03 18:36:28;;;;;;;;;;;;;;;6.52;100.00;100951.94;5067696;28;19916;-85
2023/01/03 18:39:02;;;;;;;;;;;;;;;6.50;100.00;100953.72;5033867;28;20055;-83
2023/01/03 18:41:29;;;;;;;;;;;;;;;6.49;100.00;100951.09;5053131;28;19963;-86
2023/01/03 18:43:54;;;;;;;;;;;;;;;6.49;100.00;100943.19;5039741;28;20368;-86
2023/01/03 18:46:20;;;;;;;;;;;;;;;6.41;100.00;100945.03;5059058;28;19939;-86
2023/01/03 18:48:45;;;;;;;;;;;;;;;6.40;100.00;100957.31;5053107;28;19921;-85
2023/01/03 18:51:14;;;;;;;;;;;;;;;6.39;100.00;100952.06;5052862;28;19921;-84
2023/01/03 18:53:41;;;;;;;;;;;;;;;6.35;100.00;100956.47;5033795;28;19921;-86
2023/01/03 18:56:17;;;;;;;;;;;;;;;6.35;100.00;100962.63;5034956;28;19917;-87
2023/01/03 18:58:42;;;;;;;;;;;;;;;6.32;100.00;100962.63;5034804;28;19963;-87
2023/01/03 19:01:09;;;;;;;;;;;;;;;6.26;100.00;100957.41;5034718;28;19917;-84
2023/01/03 19:03:34;;;;;;;;;;;;;;;6.22;100.00;100950.41;5034840;28;19917;-88
2023/01/03 19:06:00;;;;;;;;;;;;;;;6.27;100.00;100953.00;5035109;28;20470;-86
2023/01/03 19:08:28;;;;;;;;;;;;;;;6.22;100.00;100960.06;5033635;28;19920;-86
2023/01/03 19:10:53;;;;;;;;;;;;;;;6.17;100.00;100955.72;5043164;28;19931;-85
2023/01/03 19:13:22;;;;;;;;;;;;;;;6.13;100.00;100953.13;5054473;28;19917;-85
2023/01/03 19:15:47;;;;;;;;;;;;;;;6.15;100.00;100962.72;5069448;28;19921;-84
2023/01/03 19:18:13;;;;;;;;;;;;;;;6.10;100.00;100955.75;5064237;28;19923;-86
2023/01/03 19:20:38;;;;;;;;;;;;;;;6.08;100.00;100957.50;5061352;28;20390;-85
2023/01/03 19:23:04;;;;;;;;;;;;;;;6.02;100.00;100962.84;5033363;28;19921;-84
2023/01/03 19:25:32;;;;;;;;;;;;;;;5.97;100.00;100957.59;5068227;28;19958;-89
2023/01/03 19:27:59;;;;;;;;;;;;;;;5.98;100.00;100954.06;5074831;28;19924;-85
2023/01/03 19:30:28;;;;;;;;;;;;;;;5.95;100.00;100944.41;5057406;28;20363;-85
2023/01/03 19:32:54;;;;;;;;;;;;;;;5.94;100.00;100949.69;5040386;28;20007;-85
2023/01/03 19:35:20;;;;;;;;;;;;;;;5.94;100.00;100947.91;5037459;28;19917;-83
2023/01/03 19:37:48;;;;;;;;;;;;;;;5.91;100.00;100944.44;5036401;28;19917;-85
2023/01/03 19:40:14;;;;;;;;;;;;;;;5.86;100.00;100951.47;5037549;28;19924;-85
2023/01/03 19:42:46;;;;;;;;;;;;;;;5.85;100.00;100947.94;5055094;28;19923;-84
2023/01/03 19:45:23;;;;;;;;;;;;;;;5.83;100.00;100939.19;5037440;28;19921;-84
2023/01/03 19:47:49;;;;;;;;;;;;;;;5.79;100.00;100938.34;5036988;28;19916;-84
2023/01/03 19:50:19;;;;;;;;;;;;;;;5.78;100.00;100931.34;5037083;28;19917;-85
2023/01/03 19:52:46;;;;;;;;;;;;;;;5.74;100.00;100928.72;5053981;28;19924;-84
2023/01/03 19:55:11;;;;;;;;;;;;;;;5.74;100.00;100923.47;5054840;28;19920;-84
2023/01/03 19:57:38;;;;;;;;;;;;;;;5.72;100.00;100914.72;5036880;28;19917;-84
2023/01/03 20:00:04;;;;;;;;;;;;;;;5.68;100.00;100908.59;5054255;28;19960;-83
2023/01/03 20:02:32;;;;;;;;;;;;;;;5.70;100.00;100908.59;5056619;28;19963;-85
2023/01/03 20:04:58;;;;;;;;;;;;;;;5.64;100.00;100904.22;5074523;28;19952;-84
2023/01/03 20:07:23;;;;;;;;;;;;;;;5.62;100.00;100900.75;5037261;28;20388;-84
2023/01/03 20:09:49;;;;;;;;;;;;;;;5.62;100.00;100900.75;5035660;28;19921;-84
2023/01/03 20:12:17;;;;;;;;;;;;;;;5.59;100.00;100893.72;5036930;28;19917;-84
2023/01/03 20:14:48;;;;;;;;;;;;;;;5.58;100.00;100886.72;5054451;28;19966;-84
2023/01/03 20:17:23;;;;;;;;;;;;;;;5.58;100.00;100889.34;5056821;28;19974;-84
2023/01/03 20:19:49;;;;;;;;;;;;;;;5.56;100.00;100890.25;5048225;28;19920;-85
2023/01/03 20:22:18;;;;;;;;;;;;;;;5.57;100.00;100890.25;5044701;28;19955;-85
2023/01/03 20:24:44;;;;;;;;;;;;;;;5.55;100.00;100892.00;5058218;28;20375;-85
2023/01/03 20:27:16;;;;;;;;;;;;;;;5.55;100.00;100893.75;5064833;28;19920;-85
2023/01/03 20:29:42;;;;;;;;;;;;;;;5.51;100.00;100878.88;5056394;28;19927;-84
2023/01/03 20:32:07;;;;;;;;;;;;;;;5.53;100.00;100892.88;5056583;28;19917;-86
2023/01/03 20:34:32;;;;;;;;;;;;;;;5.50;100.00;100890.28;5074474;28;20390;-84
2023/01/03 20:37:01;;;;;;;;;;;;;;;5.51;100.00;100892.91;5055918;28;19920;-84
2023/01/03 20:39:34;;;;;;;;;;;;;;;5.48;100.00;100892.91;5047208;28;20043;-84